Time;durP1;ratioP1;P1;durP2;ratioP2;P2;SDS_P1;SDS_P2;PMS_P1;PMS_P2;Temp;Humidity;BMP_temperature;BMP_pressure;BME280_temperature;BME280_humidity;BME280_pressure;Samples;Min_cycle;Max_cycle;Signal;HPM_P1;HPM_P2
2021/07/06 00:00:47;;;;;;;3.05;1.40;;;17.40;82.40;;;;;;5051860;28;20136;-82
2021/07/06 00:03:15;;;;;;;3.20;1.50;;;17.40;82.40;;;;;;5051724;28;20128;-82
2021/07/06 00:05:42;;;;;;;2.28;1.10;;;17.40;82.40;;;;;;5036279;28;20060;-82
2021/07/06 00:08:09;;;;;;;5.35;1.50;;;17.40;82.50;;;;;;5036279;28;20042;-83
2021/07/06 00:10:36;;;;;;;3.45;1.10;;;17.40;82.50;;;;;;5051462;28;20057;-82
2021/07/06 00:13:04;;;;;;;3.78;1.27;;;17.50;82.50;;;;;;5036086;28;20053;-83
2021/07/06 00:15:31;;;;;;;6.07;1.73;;;17.40;82.50;;;;;;5036082;28;20053;-82
2021/07/06 00:17:59;;;;;;;5.97;1.70;;;17.50;82.50;;;;;;5051402;28;20111;-83
2021/07/06 00:20:27;;;;;;;13.10;1.45;;;17.50;82.50;;;;;;5035731;28;20424;-83
2021/07/06 00:22:57;;;;;;;7.10;1.45;;;17.40;82.60;;;;;;5051417;28;20051;-83
2021/07/06 00:25:25;;;;;;;7.35;1.30;;;17.40;82.50;;;;;;5035053;28;20053;-82
2021/07/06 00:27:53;;;;;;;6.20;1.45;;;17.50;82.60;;;;;;5051520;28;20052;-83
2021/07/06 00:30:21;;;;;;;6.18;1.50;;;17.50;82.60;;;;;;5036317;28;20420;-83
2021/07/06 00:32:49;;;;;;;8.77;1.50;;;17.50;82.60;;;;;;5034871;28;20148;-83
2021/07/06 00:35:17;;;;;;;4.47;1.55;;;17.50;82.70;;;;;;5050895;28;20061;-83
2021/07/06 00:37:45;;;;;;;2.78;0.85;;;17.50;82.70;;;;;;5051216;28;20053;-83
2021/07/06 00:40:13;;;;;;;7.57;1.40;;;17.50;82.60;;;;;;5035549;28;20119;-83
2021/07/06 00:42:42;;;;;;;5.70;1.50;;;17.50;82.60;;;;;;5035814;28;20509;-83
2021/07/06 00:45:11;;;;;;;6.65;1.42;;;17.50;82.70;;;;;;5035852;28;20049;-84
2021/07/06 00:47:40;;;;;;;5.10;1.40;;;17.60;82.60;;;;;;5034529;28;20041;-85
2021/07/06 00:50:11;;;;;;;5.53;1.40;;;17.60;82.70;;;;;;5034417;28;20049;-84
2021/07/06 00:52:40;;;;;;;3.58;1.20;;;17.60;82.70;;;;;;5034095;28;20467;-83
2021/07/06 00:55:08;;;;;;;10.27;1.75;;;17.60;82.70;;;;;;5034155;28;20547;-81
2021/07/06 00:57:37;;;;;;;7.78;1.55;;;17.60;82.70;;;;;;5034167;28;20048;-81
2021/07/06 01:00:14;;;;;;;9.18;1.50;;;17.70;82.60;;;;;;5035324;28;20045;-81
2021/07/06 01:02:42;;;;;;;6.15;1.40;;;17.70;82.60;;;;;;5048227;22;20553;-84
2021/07/06 01:05:26;;;;;;;4.63;1.63;;;17.70;82.70;;;;;;4997785;28;20065;-82
2021/07/06 01:07:54;;;;;;;6.30;1.50;;;17.70;82.80;;;;;;5013557;28;20073;-85
2021/07/06 01:10:39;;;;;;;7.60;1.45;;;17.80;82.80;;;;;;5013164;28;20418;-81
2021/07/06 01:13:18;;;;;;;5.72;1.30;;;17.80;82.80;;;;;;4998058;28;20042;-82
2021/07/06 01:16:06;;;;;;;9.77;1.77;;;17.80;82.90;;;;;;5012885;28;20052;-82
2021/07/06 01:18:33;;;;;;;2.97;1.38;;;17.90;82.90;;;;;;5013050;28;20049;-82
2021/07/06 01:21:08;;;;;;;5.03;1.25;;;17.90;83.00;;;;;;5013194;28;20124;-83
2021/07/06 01:23:49;;;;;;;6.30;1.60;;;17.90;82.90;;;;;;4978117;28;20054;-83
2021/07/06 01:26:16;;;;;;;5.28;1.50;;;17.90;82.90;;;;;;4977189;28;20520;-82
2021/07/06 01:28:43;;;;;;;7.55;1.40;;;17.90;82.90;;;;;;4977378;28;20080;-83
2021/07/06 01:31:33;;;;;;;5.30;1.67;;;17.90;82.90;;;;;;4977280;28;20058;-82
2021/07/06 01:34:01;;;;;;;6.47;1.52;;;17.90;82.90;;;;;;4988090;28;20141;-84
2021/07/06 01:36:28;;;;;;;3.97;1.30;;;17.90;82.90;;;;;;5010269;28;20073;-83
2021/07/06 01:38:55;;;;;;;7.35;1.60;;;17.90;82.90;;;;;;5039371;28;20055;-83
2021/07/06 01:41:22;;;;;;;3.78;1.58;;;17.90;82.90;;;;;;5069454;28;20059;-83
2021/07/06 01:43:49;;;;;;;6.07;1.63;;;17.90;82.90;;;;;;5053329;28;20049;-84
2021/07/06 01:46:16;;;;;;;8.50;1.80;;;17.90;82.90;;;;;;5053148;28;20047;-84
2021/07/06 01:48:46;;;;;;;17.45;2.13;;;17.90;83.00;;;;;;5052948;28;20459;-83
2021/07/06 01:51:13;;;;;;;6.70;1.77;;;17.90;83.00;;;;;;5054191;28;20051;-82
2021/07/06 01:53:40;;;;;;;7.30;1.58;;;17.90;83.00;;;;;;5053310;28;20516;-83
2021/07/06 01:56:07;;;;;;;7.28;1.60;;;17.90;83.00;;;;;;5069637;28;20061;-82
2021/07/06 01:58:37;;;;;;;3.58;1.52;;;17.90;83.10;;;;;;5052899;28;20048;-82
2021/07/06 02:01:05;;;;;;;9.13;1.70;;;17.90;83.10;;;;;;5069180;28;20076;-83
2021/07/06 02:03:32;;;;;;;4.72;1.80;;;17.90;83.20;;;;;;5061847;28;20072;-83
2021/07/06 02:05:59;;;;;;;8.82;2.22;;;17.90;83.30;;;;;;5056237;28;20488;-83
2021/07/06 02:08:27;;;;;;;4.32;1.75;;;17.90;83.50;;;;;;5073690;28;20040;-82
2021/07/06 02:10:58;;;;;;;6.25;1.95;;;17.90;83.50;;;;;;5056183;28;20041;-82
2021/07/06 02:13:25;;;;;;;7.55;2.13;;;17.90;83.60;;;;;;5073811;28;20044;-85
2021/07/06 02:15:55;;;;;;;6.32;1.90;;;17.90;83.60;;;;;;5055477;28;20044;-82
2021/07/06 02:18:23;;;;;;;7.57;2.20;;;17.90;83.70;;;;;;5055647;28;20106;-82
2021/07/06 02:20:53;;;;;;;10.35;2.00;;;17.90;83.70;;;;;;5056216;28;20102;-84
2021/07/06 02:23:36;;;;;;;6.50;2.05;;;17.90;83.70;;;;;;5073695;28;20051;-82
2021/07/06 02:26:06;;;;;;;6.07;1.80;;;17.90;83.70;;;;;;5073722;28;20067;-83
2021/07/06 02:28:35;;;;;;;9.00;2.13;;;17.90;83.60;;;;;;5088970;28;20067;-83
2021/07/06 02:31:04;;;;;;;6.72;1.83;;;18.00;83.60;;;;;;5072473;28;20048;-82
2021/07/06 02:33:35;;;;;;;5.07;1.92;;;17.90;83.50;;;;;;5072096;28;20489;-84
2021/07/06 02:36:05;;;;;;;6.57;1.83;;;17.90;83.40;;;;;;5073341;28;20050;-85
2021/07/06 02:38:33;;;;;;;3.85;1.58;;;18.00;83.40;;;;;;5073377;28;20060;-82
2021/07/06 02:41:00;;;;;;;5.97;2.20;;;17.90;83.30;;;;;;5088446;28;20496;-83
2021/07/06 02:43:27;;;;;;;8.40;2.00;;;17.90;83.30;;;;;;5071947;28;20045;-82
2021/07/06 02:45:55;;;;;;;6.45;1.88;;;17.90;83.20;;;;;;5073034;28;20127;-84
2021/07/06 02:48:23;;;;;;;7.70;1.92;;;17.90;83.20;;;;;;5072181;28;20106;-83
2021/07/06 02:50:50;;;;;;;10.35;1.90;;;17.90;83.20;;;;;;5073449;28;20048;-83
2021/07/06 02:53:17;;;;;;;11.45;2.28;;;17.90;83.20;;;;;;5071751;28;20053;-82
2021/07/06 02:55:44;;;;;;;7.38;2.17;;;17.90;83.30;;;;;;5088591;28;20052;-82
2021/07/06 02:58:12;;;;;;;7.47;2.42;;;17.80;83.30;;;;;;5071931;28;20411;-85
2021/07/06 03:00:39;;;;;;;8.18;1.80;;;17.80;83.30;;;;;;5071704;28;20499;-83
2021/07/06 03:03:08;;;;;;;9.95;2.38;;;17.80;83.30;;;;;;5066104;28;20496;-84
2021/07/06 03:05:36;;;;;;;10.18;2.20;;;17.80;83.30;;;;;;5051967;28;20049;-83
2021/07/06 03:08:04;;;;;;;5.97;1.60;;;17.80;83.30;;;;;;5051778;28;20045;-83
2021/07/06 03:10:38;;;;;;;4.05;1.80;;;17.80;83.30;;;;;;5051795;28;20047;-84
2021/07/06 03:13:06;;;;;;;8.38;2.00;;;17.80;83.30;;;;;;5052113;28;20044;-83
2021/07/06 03:15:33;;;;;;;11.43;2.40;;;17.80;83.40;;;;;;5051659;28;20136;-83
2021/07/06 03:18:10;;;;;;;8.02;1.90;;;17.80;83.30;;;;;;5068538;28;20053;-85
2021/07/06 03:20:38;;;;;;;5.60;1.80;;;17.80;83.30;;;;;;5053083;28;20056;-83
2021/07/06 03:23:05;;;;;;;7.05;1.92;;;17.80;83.30;;;;;;5068935;28;20071;-83
2021/07/06 03:25:33;;;;;;;3.90;1.77;;;17.80;83.20;;;;;;5072098;28;20063;-83
2021/07/06 03:28:01;;;;;;;15.13;1.80;;;17.80;83.20;;;;;;5073743;28;20051;-82
2021/07/06 03:30:32;;;;;;;5.68;1.35;;;17.80;83.10;;;;;;5075538;28;20123;-84
2021/07/06 03:33:00;;;;;;;9.05;1.90;;;17.70;83.00;;;;;;5077007;28;20059;-83
2021/07/06 03:35:27;;;;;;;4.18;1.30;;;17.70;82.80;;;;;;5076046;28;20053;-84
2021/07/06 03:37:56;;;;;;;5.70;1.40;;;17.70;82.60;;;;;;5076014;28;20411;-83
2021/07/06 03:40:24;;;;;;;3.65;1.25;;;17.70;82.30;;;;;;5075481;28;20055;-85
2021/07/06 03:42:54;;;;;;;7.43;1.10;;;17.60;81.80;;;;;;5092508;28;20052;-84
2021/07/06 03:45:23;;;;;;;6.43;1.17;;;17.60;81.40;;;;;;5092658;28;20052;-85
2021/07/06 03:47:51;;;;;;;5.00;1.13;;;17.50;80.90;;;;;;5092645;28;20136;-83
2021/07/06 03:50:21;;;;;;;4.10;1.27;;;17.50;80.80;;;;;;5092476;28;20055;-84
2021/07/06 03:52:54;;;;;;;4.35;0.95;;;17.40;80.70;;;;;;5092133;28;20092;-84
2021/07/06 03:55:22;;;;;;;12.07;1.20;;;17.40;80.70;;;;;;5076769;28;20060;-84
2021/07/06 03:57:49;;;;;;;5.53;1.05;;;17.40;80.60;;;;;;5091685;28;20048;-83
2021/07/06 04:00:20;;;;;;;15.80;1.50;;;17.30;80.30;;;;;;5076573;28;20479;-84
2021/07/06 04:02:48;;;;;;;5.32;1.20;;;17.20;80.10;;;;;;5091627;28;20057;-85
2021/07/06 04:05:16;;;;;;;5.63;1.17;;;17.20;80.00;;;;;;5076284;28;20046;-82
2021/07/06 04:07:43;;;;;;;10.20;1.25;;;17.10;80.00;;;;;;5092192;28;20499;-83
2021/07/06 04:10:16;;;;;;;7.63;1.00;;;17.10;79.90;;;;;;5091681;28;20048;-84
2021/07/06 04:12:48;;;;;;;8.00;1.27;;;17.00;79.80;;;;;;5091501;28;20173;-84
2021/07/06 04:15:17;;;;;;;9.52;1.02;;;17.00;79.80;;;;;;5091897;28;20461;-83
2021/07/06 04:17:44;;;;;;;4.57;1.10;;;16.90;79.60;;;;;;5076034;28;20491;-85
2021/07/06 04:20:13;;;;;;;5.10;1.13;;;16.90;79.50;;;;;;5091405;28;20055;-82
2021/07/06 04:22:41;;;;;;;9.35;1.23;;;16.90;79.20;;;;;;5075759;28;20048;-83
2021/07/06 04:25:10;;;;;;;9.18;1.20;;;16.80;79.00;;;;;;5075123;28;20048;-84
2021/07/06 04:27:37;;;;;;;4.07;0.90;;;16.70;79.00;;;;;;5074766;28;20045;-83
2021/07/06 04:30:07;;;;;;;8.50;1.50;;;16.60;79.00;;;;;;5074658;28;20048;-85
2021/07/06 04:32:34;;;;;;;10.95;1.10;;;16.60;79.00;;;;;;5074855;28;20056;-83
2021/07/06 04:35:01;;;;;;;5.10;1.17;;;16.60;78.90;;;;;;5074972;28;20055;-83
2021/07/06 04:37:28;;;;;;;7.85;1.38;;;16.50;78.80;;;;;;5074489;28;20058;-83
2021/07/06 04:39:56;;;;;;;7.07;1.13;;;16.40;78.80;;;;;;5074123;28;20044;-84
2021/07/06 04:42:23;;;;;;;5.88;1.20;;;16.40;78.80;;;;;;5073820;28;20051;-82
2021/07/06 04:44:50;;;;;;;7.78;1.20;;;16.40;78.90;;;;;;5075572;28;20542;-82
2021/07/06 04:47:17;;;;;;;7.53;1.20;;;16.30;79.00;;;;;;5075803;28;20066;-85
2021/07/06 04:49:44;;;;;;;9.98;1.40;;;16.30;79.20;;;;;;5075917;28;20412;-83
2021/07/06 04:52:11;;;;;;;8.00;1.17;;;16.20;79.40;;;;;;5074471;28;20492;-83
2021/07/06 04:54:38;;;;;;;4.97;1.10;;;16.20;79.70;;;;;;5090786;28;20050;-82
2021/07/06 04:57:06;;;;;;;9.15;1.15;;;16.20;79.80;;;;;;5075158;28;20049;-82
2021/07/06 04:59:33;;;;;;;7.57;1.20;;;16.20;79.80;;;;;;5090920;28;20131;-83
2021/07/06 05:02:01;;;;;;;7.35;1.13;;;16.10;79.70;;;;;;5074963;28;20048;-84
2021/07/06 05:04:31;;;;;;;6.45;1.23;;;16.10;79.60;;;;;;5090681;28;20074;-83
2021/07/06 05:07:02;;;;;;;6.53;1.40;;;16.10;79.70;;;;;;5073927;28;20136;-82
2021/07/06 05:09:31;;;;;;;7.18;1.17;;;16.10;79.50;;;;;;5075268;28;20131;-84
2021/07/06 05:12:01;;;;;;;14.43;1.85;;;16.10;79.50;;;;;;5073692;28;20471;-83
2021/07/06 05:14:28;;;;;;;4.88;1.10;;;16.00;79.20;;;;;;5073912;28;20049;-85
2021/07/06 05:16:57;;;;;;;6.32;1.63;;;16.00;78.90;;;;;;5073784;28;20557;-81
2021/07/06 05:19:24;;;;;;;7.35;1.77;;;16.10;78.70;;;;;;5074839;28;20049;-82
2021/07/06 05:21:51;;;;;;;8.07;1.55;;;16.00;78.50;;;;;;5084209;28;20045;-84
2021/07/06 05:24:18;;;;;;;15.02;2.00;;;16.00;78.40;;;;;;5055042;28;20059;-83
2021/07/06 05:26:46;;;;;;;9.98;1.40;;;16.00;78.40;;;;;;5053357;28;20049;-86
2021/07/06 05:29:13;;;;;;;6.90;1.27;;;15.90;77.90;;;;;;5053896;28;20049;-83
2021/07/06 05:31:40;;;;;;;11.02;1.90;;;15.90;77.80;;;;;;5053546;28;20044;-83
2021/07/06 05:34:07;;;;;;;11.65;1.90;;;15.90;77.50;;;;;;5054555;28;20508;-85
2021/07/06 05:36:37;;;;;;;14.10;2.35;;;15.90;77.70;;;;;;5053772;28;20135;-81
2021/07/06 05:39:06;;;;;;;19.55;2.17;;;15.90;77.30;;;;;;5060499;28;20056;-83
2021/07/06 05:41:33;;;;;;;9.13;1.52;;;15.90;77.50;;;;;;5074276;28;20040;-84
2021/07/06 05:44:01;;;;;;;11.75;1.75;;;15.90;77.30;;;;;;5073117;28;20403;-83
2021/07/06 05:46:29;;;;;;;13.73;2.35;;;16.00;77.30;;;;;;5075049;28;20056;-82
2021/07/06 05:48:56;;;;;;;11.30;2.17;;;15.90;77.10;;;;;;5073185;28;20131;-83
2021/07/06 05:51:24;;;;;;;11.00;2.15;;;16.00;77.20;;;;;;5074175;28;20075;-84
2021/07/06 05:53:51;;;;;;;6.65;1.63;;;16.00;77.00;;;;;;5073045;28;20049;-86
2021/07/06 05:56:19;;;;;;;11.55;1.63;;;16.00;76.70;;;;;;5072917;28;20421;-85
2021/07/06 05:58:47;;;;;;;10.93;1.70;;;16.10;76.50;;;;;;5073963;28;20070;-84
2021/07/06 06:01:16;;;;;;;16.67;1.88;;;16.10;76.50;;;;;;5074359;28;20062;-83
2021/07/06 06:03:43;;;;;;;17.45;2.08;;;16.10;76.20;;;;;;5089369;28;20056;-83
2021/07/06 06:06:11;;;;;;;10.07;2.05;;;16.10;75.60;;;;;;5072715;28;20137;-84
2021/07/06 06:08:38;;;;;;;10.95;2.22;;;16.10;75.20;;;;;;5073830;28;20124;-84
2021/07/06 06:11:09;;;;;;;11.65;2.10;;;16.20;74.90;;;;;;5074251;28;20055;-84
2021/07/06 06:13:37;;;;;;;14.82;2.00;;;16.20;75.20;;;;;;5072944;28;20127;-83
2021/07/06 06:16:07;;;;;;;8.82;1.50;;;16.30;75.20;;;;;;5072877;28;20511;-85
2021/07/06 06:18:35;;;;;;;9.57;1.63;;;16.30;75.30;;;;;;5089474;28;20589;-83
2021/07/06 06:21:06;;;;;;;9.50;1.67;;;16.30;75.00;;;;;;5072328;28;20521;-86
2021/07/06 06:23:39;;;;;;;7.45;1.48;;;16.40;74.80;;;;;;5052342;28;20516;-85
2021/07/06 06:26:07;;;;;;;13.98;1.83;;;16.40;74.80;;;;;;5053680;28;20099;-83
2021/07/06 06:28:36;;;;;;;9.85;1.40;;;16.40;75.10;;;;;;5052259;28;20531;-84
2021/07/06 06:31:07;;;;;;;8.00;1.90;;;16.40;75.00;;;;;;5052398;28;20079;-82
2021/07/06 06:33:34;;;;;;;9.93;2.28;;;16.40;75.10;;;;;;5052329;28;20056;-84
2021/07/06 06:36:04;;;;;;;11.98;1.88;;;16.50;74.90;;;;;;5052441;28;20060;-82
2021/07/06 06:38:34;;;;;;;8.80;1.98;;;16.50;74.90;;;;;;5054452;28;20131;-85
2021/07/06 06:41:01;;;;;;;14.23;1.95;;;16.50;74.40;;;;;;5072953;28;20044;-84
2021/07/06 06:43:31;;;;;;;9.88;1.50;;;16.50;74.00;;;;;;5088748;28;20040;-84
2021/07/06 06:46:01;;;;;;;11.23;1.73;;;16.60;74.30;;;;;;5071947;28;20129;-85
2021/07/06 06:48:30;;;;;;;12.07;1.80;;;16.60;74.40;;;;;;5089199;28;20048;-84
2021/07/06 06:50:58;;;;;;;20.60;2.47;;;16.60;74.60;;;;;;5088790;28;20409;-83
2021/07/06 06:53:26;;;;;;;10.07;1.95;;;16.60;74.20;;;;;;5088732;28;20139;-84
2021/07/06 06:55:53;;;;;;;9.82;1.50;;;16.60;73.70;;;;;;5088707;28;20040;-85
2021/07/06 06:58:20;;;;;;;13.80;1.75;;;16.60;74.00;;;;;;5088637;28;20051;-83
2021/07/06 07:00:47;;;;;;;17.25;2.30;;;16.60;74.10;;;;;;5088433;28;20544;-84
2021/07/06 07:03:14;;;;;;;9.88;1.70;;;16.60;73.80;;;;;;5072281;28;20053;-85
2021/07/06 07:05:42;;;;;;;11.20;2.45;;;16.60;73.60;;;;;;5055468;28;20051;-86
2021/07/06 07:08:09;;;;;;;13.27;1.80;;;16.60;74.00;;;;;;5055058;28;20442;-84
2021/07/06 07:10:40;;;;;;;13.15;2.13;;;16.60;74.00;;;;;;5040797;28;20499;-84
2021/07/06 07:13:10;;;;;;;10.23;2.00;;;16.60;74.00;;;;;;5068143;28;20139;-84
2021/07/06 07:15:40;;;;;;;14.60;1.80;;;16.60;74.00;;;;;;5047976;28;20412;-86
2021/07/06 07:18:08;;;;;;;10.25;2.13;;;16.60;74.00;;;;;;5014684;28;20053;-84
2021/07/06 07:20:38;;;;;;;12.13;2.10;;;16.60;73.90;;;;;;5014187;28;20056;-85
2021/07/06 07:23:05;;;;;;;19.42;2.08;;;16.60;73.80;;;;;;5030264;28;20508;-84
2021/07/06 07:25:33;;;;;;;9.45;1.98;;;16.60;73.60;;;;;;5051835;28;20087;-83
2021/07/06 07:28:06;;;;;;;15.55;2.03;;;16.60;73.80;;;;;;5051753;28;20516;-86
2021/07/06 07:30:33;;;;;;;18.75;2.47;;;16.70;74.10;;;;;;5050967;28;20406;-84
2021/07/06 07:33:07;;;;;;;14.88;2.65;;;16.70;73.10;;;;;;5034718;28;20483;-86
2021/07/06 07:35:49;;;;;;;13.50;2.22;;;16.70;73.00;;;;;;5033629;28;20163;-84
2021/07/06 07:38:24;;;;;;;;;;;16.70;73.20;;;;;;5033630;28;20143;-85
2021/07/06 07:40:55;;;;;;;11.52;2.22;;;16.70;73.30;;;;;;5045053;28;19947;-84
2021/07/06 07:43:22;;;;;;;15.80;2.47;;;16.80;73.60;;;;;;5033798;28;20079;-84
2021/07/06 07:45:54;;;;;;;20.65;2.42;;;16.80;73.40;;;;;;5034331;28;20069;-85
2021/07/06 07:48:24;;;;;;;12.20;2.10;;;16.90;73.10;;;;;;5034531;28;20127;-85
2021/07/06 07:50:58;;;;;;;10.25;1.80;;;16.90;73.00;;;;;;5051066;28;20500;-86
2021/07/06 07:53:46;;;;;;;13.40;2.20;;;16.90;72.90;;;;;;5049720;28;20049;-82
2021/07/06 07:56:15;;;;;;;11.20;2.55;;;17.00;72.60;;;;;;5050625;28;20049;-85
2021/07/06 07:58:42;;;;;;;12.18;2.25;;;17.10;72.80;;;;;;5033660;28;20486;-84
2021/07/06 08:01:09;;;;;;;14.18;2.50;;;17.10;71.70;;;;;;5033977;28;20099;-85
2021/07/06 08:03:40;;;;;;;15.60;2.60;;;17.10;71.60;;;;;;5060730;28;20095;-86
2021/07/06 08:06:13;;;;;;;17.27;2.40;;;17.10;70.90;;;;;;5050120;28;20111;-86
2021/07/06 08:08:52;;;;;;;13.68;1.83;;;17.20;71.90;;;;;;5051479;28;20053;-88
2021/07/06 08:11:28;;;;;;;9.60;2.03;;;17.20;71.80;;;;;;5051217;28;20076;-86
2021/07/06 08:13:56;;;;;;;7.47;1.80;;;17.30;71.80;;;;;;5050973;28;20131;-85
2021/07/06 08:16:36;;;;;;;11.55;2.67;;;17.30;71.80;;;;;;5054127;28;20463;-85
2021/07/06 08:19:04;;;;;;;15.23;2.72;;;17.40;71.80;;;;;;5053946;28;20063;-84
2021/07/06 08:21:32;;;;;;;9.55;1.83;;;17.40;70.30;;;;;;5057173;28;20143;-85
2021/07/06 08:24:02;;;;;;;17.98;2.05;;;17.40;70.40;;;;;;5073464;28;20127;-86
2021/07/06 08:26:35;;;;;;;15.32;2.08;;;17.50;70.40;;;;;;5073700;28;20048;-84
2021/07/06 08:29:06;;;;;;;20.63;2.47;;;17.50;70.30;;;;;;5090224;28;20055;-87
2021/07/06 08:31:33;;;;;;;14.65;2.17;;;17.50;70.20;;;;;;5073329;28;20597;-83
2021/07/06 08:34:00;;;;;;;12.93;2.22;;;17.50;70.70;;;;;;5072910;28;20527;-83
2021/07/06 08:36:29;;;;;;;11.43;2.45;;;17.50;70.60;;;;;;5073247;28;20495;-85
2021/07/06 08:38:58;;;;;;;12.10;2.40;;;17.50;71.10;;;;;;5068560;28;20507;-86
2021/07/06 08:41:26;;;;;;;10.55;2.17;;;17.60;70.70;;;;;;5071941;28;20049;-85
2021/07/06 08:43:57;;;;;;;12.43;2.33;;;17.50;70.60;;;;;;5089857;28;20052;-85
2021/07/06 08:46:24;;;;;;;17.48;2.55;;;17.60;70.80;;;;;;5073436;28;20080;-84
2021/07/06 08:48:52;;;;;;;13.65;2.67;;;17.60;71.10;;;;;;5056194;28;20086;-87
2021/07/06 08:51:23;;;;;;;16.27;2.20;;;17.60;70.10;;;;;;5074640;28;20517;-83
2021/07/06 08:53:51;;;;;;;13.40;2.60;;;17.60;70.40;;;;;;5074532;28;20052;-83
2021/07/06 08:56:27;;;;;;;12.80;2.25;;;17.70;70.40;;;;;;5073329;28;20076;-84
2021/07/06 08:58:54;;;;;;;12.52;2.67;;;17.70;70.00;;;;;;5073574;28;20076;-86
2021/07/06 09:01:31;;;;;;;11.93;2.47;;;17.70;70.30;;;;;;5074241;28;20500;-88
2021/07/06 09:04:11;;;;;;;12.35;2.30;;;17.60;69.90;;;;;;5086859;28;20105;-83
2021/07/06 09:06:57;;;;;;;13.85;2.20;;;17.50;70.30;;;;;;5073149;28;20127;-84
2021/07/06 09:09:28;;;;;;;13.75;1.52;;;17.50;70.80;;;;;;5073215;28;20048;-85
2021/07/06 09:12:05;;;;;;;;;;;17.50;70.70;;;;;;5073125;28;20125;-83
2021/07/06 09:14:57;;;;;;;14.75;2.20;;;17.60;70.70;;;;;;5089297;28;20425;-86
2021/07/06 09:17:35;;;;;;;10.00;1.83;;;17.60;70.60;;;;;;5073747;28;20400;-86
2021/07/06 09:20:14;;;;;;;13.90;1.90;;;17.60;70.60;;;;;;5072480;28;20044;-86
2021/07/06 09:22:41;;;;;;;20.52;2.08;;;17.60;69.50;;;;;;5073719;28;20060;-87
2021/07/06 09:25:11;;;;;;;17.05;2.47;;;17.60;69.70;;;;;;5073542;28;20123;-83
2021/07/06 09:27:41;;;;;;;13.88;1.70;;;17.60;70.20;;;;;;5071837;28;20495;-87
2021/07/06 09:30:27;;;;;;;9.73;1.92;;;17.60;70.50;;;;;;5072457;28;20059;-85
2021/07/06 09:33:09;;;;;;;;;;;;;;;;;;;;;
2021/07/06 09:35:36;;;;;;;10.98;1.90;;;17.50;70.40;;;;;;5073891;28;20079;-87
2021/07/06 09:38:04;;;;;;;8.55;1.83;;;17.60;70.70;;;;;;5073433;28;20401;-82
2021/07/06 09:40:42;;;;;;;9.63;1.70;;;17.50;70.00;;;;;;5071656;28;20071;-86
2021/07/06 09:43:18;;;;;;;18.27;2.10;;;17.50;70.30;;;;;;5072249;28;20087;-84
2021/07/06 09:46:09;;;;;;;23.58;2.05;;;17.50;70.80;;;;;;5072339;28;20048;-84
2021/07/06 09:48:43;;;;;;;15.95;2.28;;;17.40;69.80;;;;;;5071973;28;20064;-86
2021/07/06 09:51:15;;;;;;;12.20;1.90;;;17.40;70.10;;;;;;5072492;28;20049;-87
2021/07/06 09:53:55;;;;;;;11.35;1.63;;;17.40;70.30;;;;;;5071853;28;20105;-85
2021/07/06 09:56:26;;;;;;;9.60;2.13;;;17.50;70.70;;;;;;5071912;28;20055;-87
2021/07/06 09:59:06;;;;;;;13.65;1.55;;;17.40;70.80;;;;;;5071919;28;20518;-83
2021/07/06 10:02:04;;;;;;;12.40;1.88;;;17.40;71.20;;;;;;5071562;28;20064;-86
2021/07/06 10:04:41;;;;;;;7.90;1.65;;;17.40;71.00;;;;;;5059708;28;20049;-86
2021/07/06 10:07:32;;;;;;;10.60;1.90;;;17.40;70.80;;;;;;5071937;28;20506;-85
2021/07/06 10:09:59;;;;;;;10.68;1.90;;;17.40;71.10;;;;;;5071467;28;20515;-84
2021/07/06 10:12:43;;;;;;;15.35;1.95;;;17.50;71.10;;;;;;5070994;28;20048;-86
2021/07/06 10:15:27;;;;;;;15.27;1.77;;;17.50;71.10;;;;;;5071559;28;20076;-85
2021/07/06 10:17:58;;;;;;;12.95;1.88;;;17.60;71.30;;;;;;5071916;28;20113;-86
2021/07/06 10:21:11;;;;;;;12.52;2.25;;;17.60;71.10;;;;;;5055185;28;20053;-86
2021/07/06 10:23:33;;;;;;;13.40;2.15;;;17.70;71.30;;;;;;5031731;28;20064;-87
2021/07/06 10:26:40;;;;;;;9.98;1.92;;;17.70;71.30;;;;;;5018538;28;20053;-85
2021/07/06 10:29:11;;;;;;;8.93;1.70;;;17.80;71.00;;;;;;5015222;28;20128;-85
2021/07/06 10:31:55;;;;;;;8.45;1.70;;;17.80;71.00;;;;;;5015579;28;20049;-89
2021/07/06 10:34:50;;;;;;;10.32;1.63;;;17.70;71.10;;;;;;5015795;28;20076;-87
2021/07/06 10:37:31;;;;;;;10.38;1.90;;;17.70;71.30;;;;;;5031681;28;20063;-85
2021/07/06 10:40:44;;;;;;;10.45;1.55;;;17.70;70.60;;;;;;5025700;28;20124;-89
2021/07/06 10:47:37;;;;;;;16.73;1.83;;;17.70;71.60;;;;;;4999584;28;20063;-86
2021/07/06 10:50:56;;;;;;;;;;;;;;;;;;;;;
2021/07/06 10:54:00;;;;;;;15.38;1.75;;;17.70;72.50;;;;;;4991017;28;20096;-85
2021/07/06 10:57:28;;;;;;;6.97;1.67;;;17.80;72.60;;;;;;4952120;29;20069;-88
2021/07/06 10:59:57;;;;;;;8.77;1.63;;;18.00;72.80;;;;;;4842065;29;20049;-84
2021/07/06 11:03:30;;;;;;;5.43;1.20;;;18.20;72.50;;;;;;4856990;29;20072;-89
2021/07/06 11:06:35;;;;;;;10.20;1.77;;;18.40;72.50;;;;;;4857626;29;20052;-90
2021/07/06 11:09:27;;;;;;;14.82;1.90;;;18.60;72.00;;;;;;4817134;29;20041;-89
2021/07/06 11:12:44;;;;;;;9.40;1.92;;;18.90;72.00;;;;;;4857023;29;20049;-88
2021/07/06 11:15:21;;;;;;;15.82;1.40;;;19.10;70.80;;;;;;4823978;29;20128;-88
2021/07/06 11:18:10;;;;;;;13.23;1.17;;;19.30;70.80;;;;;;4808896;29;20053;-85
2021/07/06 11:20:47;;;;;;;9.00;1.77;;;19.50;70.50;;;;;;4830966;29;20094;-87
2021/07/06 11:23:21;;;;;;;4.20;1.20;;;19.60;69.70;;;;;;4775238;29;20047;-88
2021/07/06 11:26:06;;;;;;;6.10;1.48;;;19.70;69.50;;;;;;4787494;29;20134;-89
2021/07/06 11:29:00;;;;;;;8.25;1.85;;;19.80;69.00;;;;;;4820722;29;20133;-87
2021/07/06 11:31:32;;;;;;;6.40;1.38;;;19.90;68.60;;;;;;4820737;29;20043;-85
2021/07/06 11:34:04;;;;;;;6.65;1.48;;;19.90;68.60;;;;;;4845460;29;20438;-86
2021/07/06 11:36:48;;;;;;;4.28;1.20;;;19.90;68.70;;;;;;4917462;28;20634;-85
2021/07/06 11:39:18;;;;;;;9.75;1.88;;;19.80;69.20;;;;;;4951418;29;20130;-85
2021/07/06 11:41:54;;;;;;;18.85;1.50;;;19.70;69.50;;;;;;4970207;28;20062;-85
2021/07/06 11:44:33;;;;;;;11.93;1.33;;;19.50;70.00;;;;;;4954874;28;20051;-90
2021/07/06 11:47:14;;;;;;;7.20;1.80;;;19.40;70.50;;;;;;4954795;28;20074;-89
2021/07/06 11:49:45;;;;;;;4.22;1.05;;;19.30;71.90;;;;;;5040339;28;20087;-88
2021/07/06 11:52:13;;;;;;;7.93;1.25;;;19.30;73.00;;;;;;5038348;28;20044;-86
2021/07/06 11:54:53;;;;;;;8.48;1.25;;;19.40;72.40;;;;;;5054448;28;20061;-87
2021/07/06 11:57:26;;;;;;;3.60;0.88;;;19.40;72.20;;;;;;5038139;28;20141;-88
2021/07/06 12:00:09;;;;;;;3.42;0.75;;;19.50;71.90;;;;;;5038418;28;20119;-90
2021/07/06 12:02:56;;;;;;;5.00;0.82;;;19.60;70.90;;;;;;5044757;28;20135;-86
2021/07/06 12:05:30;;;;;;;10.98;1.00;;;19.60;70.30;;;;;;5058457;28;20055;-87
2021/07/06 12:08:28;;;;;;;6.35;0.80;;;19.80;70.20;;;;;;5058260;28;20106;-85
2021/07/06 12:11:08;;;;;;;5.65;1.10;;;19.90;69.50;;;;;;5058571;28;20048;-86
2021/07/06 12:13:51;;;;;;;4.15;0.70;;;19.90;69.30;;;;;;5074406;28;20075;-87
2021/07/06 12:16:27;;;;;;;6.57;1.02;;;20.10;68.40;;;;;;5057725;28;20051;-88
2021/07/06 12:19:05;;;;;;;10.18;1.20;;;20.10;67.60;;;;;;5057624;28;20048;-88
2021/07/06 12:21:36;;;;;;;4.30;1.00;;;20.10;67.50;;;;;;5054409;28;20128;-86
2021/07/06 12:24:16;;;;;;;8.93;0.80;;;20.10;66.60;;;;;;5038060;28;20052;-88
2021/07/06 12:26:54;;;;;;;7.85;1.15;;;20.10;66.90;;;;;;5037274;28;20076;-88
2021/07/06 12:29:31;;;;;;;8.07;1.00;;;20.10;66.70;;;;;;5038164;28;20049;-88
2021/07/06 12:32:01;;;;;;;4.47;1.15;;;20.10;66.70;;;;;;5037513;28;20049;-87
2021/07/06 12:34:37;;;;;;;6.63;1.00;;;20.00;66.70;;;;;;5037952;28;20049;-86
2021/07/06 12:37:13;;;;;;;7.30;0.90;;;20.00;66.20;;;;;;5037619;28;20044;-88
2021/07/06 12:39:57;;;;;;;;;;;;;;;;;;;;;
2021/07/06 12:42:46;;;;;;;3.60;0.80;;;19.90;66.90;;;;;;5034421;28;20053;-89
2021/07/06 12:45:34;;;;;;;6.00;0.77;;;19.90;65.50;;;;;;4999329;28;20060;-87
2021/07/06 12:48:31;;;;;;;5.38;0.98;;;19.80;65.90;;;;;;4998396;28;20176;-86
2021/07/06 12:51:10;;;;;;;3.55;1.05;;;19.70;66.60;;;;;;4996793;28;20061;-86
2021/07/06 12:53:41;;;;;;;2.78;0.90;;;19.70;68.40;;;;;;4996075;28;20053;-88
2021/07/06 12:56:34;;;;;;;6.85;1.00;;;19.60;68.90;;;;;;4998378;28;20093;-83
2021/07/06 12:59:24;;;;;;;4.80;0.70;;;19.50;69.80;;;;;;4996362;28;20165;-86
2021/07/06 13:01:56;;;;;;;2.05;0.52;;;19.40;69.70;;;;;;4995242;28;20077;-86
2021/07/06 13:04:59;;;;;;;2.30;0.50;;;19.20;69.80;;;;;;5030803;28;20053;-86
2021/07/06 13:07:30;;;;;;;7.18;0.70;;;19.10;69.40;;;;;;5016073;28;20055;-89
2021/07/06 13:10:07;;;;;;;7.38;0.60;;;19.10;68.50;;;;;;5045273;28;20059;-84
2021/07/06 13:12:39;;;;;;;5.70;0.50;;;19.10;67.50;;;;;;5072785;28;20084;-88
2021/07/06 13:15:09;;;;;;;6.32;0.85;;;19.20;66.20;;;;;;5073051;28;20106;-85
2021/07/06 13:17:47;;;;;;;3.78;0.55;;;19.20;66.10;;;;;;5073236;28;20111;-85
2021/07/06 13:20:18;;;;;;;7.60;0.90;;;19.30;64.70;;;;;;5074063;28;20044;-86
2021/07/06 13:26:59;;;;;;;;;;;;;;;;;;;;;